East Monbo, North Carolina
Current Conditions -  °F | °C
As of 2:15 PM on Thursday 18 Dec 2014 (Local Time) from KSVH Reporting Station
Scattered Clouds Scattered Clouds  
Wind Chill: 49°   Ceiling: Unl
Heat Index: 49°   Visibility: 10mi
Dew Point: 25°   Wind: 3mph
Humidity: 40%   Direction: 260°W
Pressure: 30.07"   Gusts: NA
Location:  35.8306°N, 80.9003°W
Report Text: KSVH 181915Z AUTO 26003KT 10SM SCT065 09/M04 A3007 RMK AO2 T00931037
Loading
Personal Weather Stations






























Interactive Weather Map New forecast layout! Learn more

10-Day Weather Forecast

Advertisements
Track Severe Weather on mobile